Time;durP1;ratioP1;P1;durP2;ratioP2;P2;SDS_P1;SDS_P2;PMS_P1;PMS_P2;Temp;Humidity;BMP_temperature;BMP_pressure;BME280_temperature;BME280_humidity;BME280_pressure;Samples;Min_cycle;Max_cycle;Signal;HPM_P1;HPM_P2
2023/10/29 00:00:17;;;;;;;1.85;0.93;;;4.80;99.90;;;;;;5032934;28;20036;-76
2023/10/29 00:02:44;;;;;;;2.05;1.30;;;4.80;99.90;;;;;;5034249;28;20096;-76
2023/10/29 00:05:09;;;;;;;2.47;1.50;;;4.80;99.90;;;;;;5033064;28;20035;-76
2023/10/29 00:07:36;;;;;;;3.17;1.60;;;4.70;99.90;;;;;;5031954;28;20025;-76
2023/10/29 00:10:02;;;;;;;3.25;1.50;;;4.70;99.90;;;;;;5034027;28;20049;-76
2023/10/29 00:12:28;;;;;;;2.17;1.20;;;4.60;99.90;;;;;;5034117;28;20500;-76
2023/10/29 00:14:53;;;;;;;3.90;1.40;;;4.50;99.90;;;;;;5034073;28;20117;-76
2023/10/29 00:17:19;;;;;;;2.40;1.25;;;4.50;99.90;;;;;;5033964;28;20029;-76
2023/10/29 00:19:45;;;;;;;2.42;1.60;;;4.40;99.90;;;;;;5032624;28;20033;-76
2023/10/29 00:22:11;;;;;;;3.78;1.38;;;4.30;99.90;;;;;;5016265;28;20026;-76
2023/10/29 00:24:37;;;;;;;2.92;1.40;;;4.30;99.90;;;;;;5032787;28;20032;-76
2023/10/29 00:27:03;;;;;;;2.88;1.25;;;4.40;99.90;;;;;;5033809;28;20034;-76
2023/10/29 00:29:29;;;;;;;2.80;1.05;;;4.40;99.90;;;;;;5033647;28;20432;-76
2023/10/29 00:31:54;;;;;;;2.45;1.30;;;4.30;99.90;;;;;;5033249;28;20032;-75
2023/10/29 00:34:20;;;;;;;3.83;1.33;;;4.30;99.90;;;;;;5016058;28;20500;-76
2023/10/29 00:36:45;;;;;;;1.70;1.00;;;4.30;99.90;;;;;;5033008;28;20500;-76
2023/10/29 00:39:11;;;;;;;2.75;1.40;;;4.30;99.90;;;;;;5032569;28;20026;-76
2023/10/29 00:41:37;;;;;;;2.45;1.30;;;4.40;99.90;;;;;;5015901;28;20034;-76
2023/10/29 00:44:03;;;;;;;2.88;1.20;;;4.40;99.90;;;;;;5034097;28;20112;-76
2023/10/29 00:46:29;;;;;;;2.50;1.30;;;4.40;99.90;;;;;;5034190;28;20425;-76
2023/10/29 00:48:55;;;;;;;1.80;1.00;;;4.40;99.90;;;;;;5033752;28;20037;-76
2023/10/29 00:51:20;;;;;;;4.25;1.50;;;4.30;99.90;;;;;;5033551;28;20056;-76
2023/10/29 00:53:46;;;;;;;2.53;1.52;;;4.30;99.90;;;;;;5033467;28;20052;-76
2023/10/29 00:56:13;;;;;;;3.50;1.42;;;4.30;99.90;;;;;;5032266;28;20030;-76
2023/10/29 00:58:40;;;;;;;2.72;1.40;;;4.30;99.90;;;;;;5033303;28;20149;-76
2023/10/29 01:01:05;;;;;;;2.40;1.20;;;4.30;99.90;;;;;;5033351;28;20113;-76
2023/10/29 01:03:31;;;;;;;2.47;1.30;;;4.30;99.90;;;;;;5033379;28;20121;-76
2023/10/29 01:05:57;;;;;;;2.45;1.38;;;4.30;99.90;;;;;;5033382;28;20510;-76
2023/10/29 01:08:25;;;;;;;3.55;1.58;;;4.20;99.90;;;;;;5015704;28;20088;-76
2023/10/29 01:10:51;;;;;;;2.13;1.30;;;4.20;99.90;;;;;;5031944;28;20021;-76
2023/10/29 01:13:17;;;;;;;2.22;1.10;;;4.20;99.90;;;;;;5032078;28;20116;-76
2023/10/29 01:15:43;;;;;;;2.00;1.08;;;4.10;99.90;;;;;;5032023;28;20017;-76
2023/10/29 01:18:09;;;;;;;2.58;1.70;;;4.00;99.90;;;;;;5035121;28;20030;-76
2023/10/29 01:20:34;;;;;;;2.58;1.40;;;4.00;99.90;;;;;;5037843;28;20029;-76
2023/10/29 01:23:02;;;;;;;3.53;1.17;;;4.00;99.90;;;;;;5036434;28;20029;-76
2023/10/29 01:25:27;;;;;;;2.63;1.10;;;3.90;99.90;;;;;;5037238;28;20026;-76
2023/10/29 01:27:54;;;;;;;1.55;1.00;;;3.90;99.90;;;;;;5036186;28;20045;-76
2023/10/29 01:30:19;;;;;;;2.00;1.00;;;3.90;99.90;;;;;;5036079;28;20485;-76
2023/10/29 01:32:45;;;;;;;2.55;1.05;;;3.90;99.90;;;;;;5036132;28;20116;-76
2023/10/29 01:35:12;;;;;;;1.63;1.02;;;3.90;99.90;;;;;;5037282;28;20448;-76
2023/10/29 01:37:37;;;;;;;3.67;1.40;;;3.90;99.90;;;;;;5037922;28;20040;-76
2023/10/29 01:40:04;;;;;;;2.20;1.48;;;3.90;99.90;;;;;;5036842;28;20120;-76
2023/10/29 01:42:30;;;;;;;2.47;1.40;;;3.90;99.90;;;;;;5037551;28;20036;-75
2023/10/29 01:44:55;;;;;;;2.65;1.23;;;3.90;99.90;;;;;;5037015;28;20029;-76
2023/10/29 01:47:21;;;;;;;2.28;1.30;;;3.90;99.90;;;;;;5036034;28;20044;-75
2023/10/29 01:49:47;;;;;;;2.08;1.27;;;3.90;99.90;;;;;;5036644;28;20474;-76
2023/10/29 01:52:12;;;;;;;2.30;1.05;;;3.90;99.90;;;;;;5035656;28;20429;-75
2023/10/29 01:54:38;;;;;;;2.38;1.10;;;3.90;99.90;;;;;;5037243;28;20025;-76
2023/10/29 01:57:04;;;;;;;2.10;1.27;;;3.90;99.90;;;;;;5019060;28;20025;-76
2023/10/29 01:59:30;;;;;;;2.70;1.00;;;4.00;99.90;;;;;;5036621;28;20425;-76
2023/10/29 02:01:56;;;;;;;2.10;0.98;;;4.00;99.90;;;;;;5037263;28;20029;-75
2023/10/29 02:04:26;;;;;;;1.67;1.05;;;4.00;99.90;;;;;;5035866;28;20037;-76
2023/10/29 02:06:55;;;;;;;2.23;1.20;;;4.00;99.90;;;;;;5037171;28;20053;-75
2023/10/29 02:09:22;;;;;;;2.08;1.10;;;3.90;99.90;;;;;;5036386;28;20366;-76
2023/10/29 02:11:48;;;;;;;3.42;1.00;;;3.90;99.90;;;;;;5036688;28;20053;-76
2023/10/29 02:14:13;;;;;;;1.73;0.98;;;3.80;99.90;;;;;;5035148;28;20071;-76
2023/10/29 02:16:39;;;;;;;1.73;0.98;;;3.80;99.90;;;;;;5036348;28;20397;-76
2023/10/29 02:19:04;;;;;;;1.85;1.02;;;3.80;99.90;;;;;;5036220;28;20083;-76
2023/10/29 02:21:30;;;;;;;2.25;1.20;;;3.80;99.90;;;;;;5034878;28;20043;-76
2023/10/29 02:24:00;;;;;;;1.73;1.05;;;3.80;99.90;;;;;;5036285;28;20057;-76
2023/10/29 02:26:26;;;;;;;2.85;1.00;;;3.80;99.90;;;;;;5036958;28;20025;-76
2023/10/29 02:28:52;;;;;;;2.70;1.05;;;3.80;99.90;;;;;;5035582;28;20139;-76
2023/10/29 02:31:19;;;;;;;2.03;1.15;;;3.80;99.90;;;;;;5035580;28;20029;-76
2023/10/29 02:33:44;;;;;;;2.05;1.00;;;3.80;99.90;;;;;;5035990;28;20040;-76
2023/10/29 02:36:10;;;;;;;2.58;1.20;;;3.70;99.90;;;;;;5034855;28;20486;-76
2023/10/29 02:38:40;;;;;;;4.40;1.10;;;3.80;99.90;;;;;;5034770;28;20025;-76
2023/10/29 02:41:06;;;;;;;2.40;1.20;;;3.70;99.90;;;;;;5035892;28;20022;-76
2023/10/29 02:43:32;;;;;;;1.90;1.17;;;3.70;99.90;;;;;;5036531;28;20021;-76
2023/10/29 02:45:58;;;;;;;2.58;1.15;;;3.60;99.90;;;;;;5037264;28;20062;-76
2023/10/29 02:48:24;;;;;;;2.10;1.20;;;3.50;99.90;;;;;;5036660;28;20037;-76
2023/10/29 02:50:51;;;;;;;2.85;0.95;;;3.50;99.90;;;;;;5035663;28;20103;-76
2023/10/29 02:53:17;;;;;;;1.52;0.70;;;3.50;99.90;;;;;;5034625;28;20486;-76
2023/10/29 02:55:43;;;;;;;2.05;1.00;;;3.60;99.90;;;;;;5035588;28;20037;-76
2023/10/29 02:58:08;;;;;;;3.13;1.77;;;3.60;99.90;;;;;;5035380;28;20036;-76
2023/10/29 03:00:34;;;;;;;2.35;1.30;;;3.60;99.90;;;;;;5035763;28;20104;-76
2023/10/29 03:03:00;;;;;;;1.88;1.00;;;3.50;99.90;;;;;;5035523;28;20025;-76
2023/10/29 03:05:25;;;;;;;2.63;1.17;;;3.60;99.90;;;;;;5035541;28;20095;-76
2023/10/29 03:07:51;;;;;;;1.95;1.08;;;3.50;99.90;;;;;;5035630;28;20076;-75
2023/10/29 03:10:17;;;;;;;2.75;1.10;;;3.60;99.90;;;;;;5035245;28;20033;-76
2023/10/29 03:12:42;;;;;;;1.70;1.08;;;3.60;99.90;;;;;;5035341;28;20060;-76
2023/10/29 03:15:08;;;;;;;3.35;1.17;;;3.70;99.90;;;;;;5035194;28;20029;-75
2023/10/29 03:17:34;;;;;;;3.08;0.90;;;3.60;99.90;;;;;;5035215;28;20029;-76
2023/10/29 03:20:00;;;;;;;1.48;0.95;;;3.60;99.90;;;;;;5033877;28;20585;-76
2023/10/29 03:22:26;;;;;;;2.30;1.10;;;3.60;99.90;;;;;;5033974;28;20390;-76
2023/10/29 03:24:51;;;;;;;1.80;0.90;;;3.60;99.90;;;;;;5035045;28;20397;-76
2023/10/29 03:27:17;;;;;;;1.60;1.00;;;3.60;99.90;;;;;;5035306;28;20030;-75
2023/10/29 03:29:43;;;;;;;3.88;0.82;;;3.60;99.90;;;;;;5033562;28;20459;-76
2023/10/29 03:32:08;;;;;;;2.10;1.00;;;3.50;99.90;;;;;;5033979;28;20486;-76
2023/10/29 03:34:34;;;;;;;2.80;1.02;;;3.40;99.90;;;;;;5034929;28;20021;-76
2023/10/29 03:37:00;;;;;;;3.25;1.10;;;3.40;99.90;;;;;;5034898;28;20021;-76
2023/10/29 03:39:26;;;;;;;2.60;1.05;;;3.40;99.90;;;;;;5034948;28;20037;-76
2023/10/29 03:41:52;;;;;;;2.00;1.10;;;3.40;99.90;;;;;;5033655;28;20389;-76
2023/10/29 03:44:17;;;;;;;2.03;0.85;;;3.40;99.90;;;;;;5033557;28;20152;-76
2023/10/29 03:46:43;;;;;;;2.08;1.13;;;3.40;99.90;;;;;;5033613;28;20029;-76
2023/10/29 03:49:09;;;;;;;1.88;0.90;;;3.40;99.90;;;;;;5016860;28;20029;-76
2023/10/29 03:51:42;;;;;;;1.05;0.80;;;3.40;99.90;;;;;;5034566;28;20025;-76
2023/10/29 03:54:08;;;;;;;3.28;1.17;;;3.40;99.90;;;;;;5034659;28;20481;-76
2023/10/29 03:56:33;;;;;;;1.83;1.05;;;3.40;99.90;;;;;;5034576;28;20030;-76
2023/10/29 03:58:59;;;;;;;2.80;1.15;;;3.40;99.90;;;;;;5034435;28;20037;-76
2023/10/29 04:01:25;;;;;;;2.70;0.80;;;3.40;99.90;;;;;;5034346;28;20390;-76
2023/10/29 04:03:50;;;;;;;2.03;1.00;;;3.50;99.90;;;;;;5034344;28;20424;-76
2023/10/29 04:06:16;;;;;;;2.47;1.00;;;3.50;99.90;;;;;;5034514;28;20080;-76
2023/10/29 04:08:42;;;;;;;1.83;1.00;;;3.50;99.90;;;;;;5034465;28;20117;-76
2023/10/29 04:11:08;;;;;;;1.63;0.90;;;3.50;99.90;;;;;;5034190;28;20053;-76
2023/10/29 04:13:34;;;;;;;1.88;0.90;;;3.60;99.90;;;;;;5016412;28;20478;-76
2023/10/29 04:15:59;;;;;;;3.13;0.80;;;3.60;99.90;;;;;;5034660;28;20097;-76
2023/10/29 04:18:27;;;;;;;2.72;0.93;;;3.60;99.90;;;;;;5034050;28;20059;-76
2023/10/29 04:20:56;;;;;;;1.55;0.90;;;3.70;99.90;;;;;;5034025;28;20097;-76
2023/10/29 04:23:22;;;;;;;1.58;0.98;;;3.70;99.90;;;;;;5033999;28;20026;-76
2023/10/29 04:25:48;;;;;;;2.05;0.90;;;3.70;99.90;;;;;;5034030;28;20076;-76
2023/10/29 04:28:14;;;;;;;1.60;0.90;;;3.70;99.90;;;;;;5033941;28;20055;-76
2023/10/29 04:30:39;;;;;;;1.65;0.98;;;3.70;99.90;;;;;;5033676;28;20045;-76
2023/10/29 04:33:05;;;;;;;1.55;0.90;;;3.60;99.90;;;;;;5032696;28;20025;-76
2023/10/29 04:35:31;;;;;;;2.03;1.10;;;3.60;99.90;;;;;;5032474;28;20029;-76
2023/10/29 04:37:56;;;;;;;1.90;1.10;;;3.50;99.90;;;;;;5034125;28;20030;-76
2023/10/29 04:40:22;;;;;;;1.88;1.00;;;3.50;99.90;;;;;;5032444;28;20025;-76
2023/10/29 04:42:48;;;;;;;3.47;1.05;;;3.50;99.90;;;;;;5032549;28;20044;-76
2023/10/29 04:45:14;;;;;;;2.20;1.15;;;3.50;99.90;;;;;;5033588;28;20041;-76
2023/10/29 04:47:40;;;;;;;2.67;0.95;;;3.50;99.90;;;;;;5033625;28;20032;-76
2023/10/29 04:50:06;;;;;;;1.77;1.00;;;3.40;99.90;;;;;;5033441;28;20029;-76
2023/10/29 04:52:32;;;;;;;2.60;1.08;;;3.40;99.90;;;;;;5032014;28;20482;-77
2023/10/29 04:55:01;;;;;;;3.28;1.27;;;3.40;99.90;;;;;;5033766;28;20036;-76
2023/10/29 04:57:30;;;;;;;2.67;1.67;;;3.40;99.90;;;;;;5032151;28;20033;-76
2023/10/29 04:59:56;;;;;;;3.70;1.60;;;3.50;99.90;;;;;;5033471;28;20033;-76
2023/10/29 05:02:22;;;;;;;2.72;1.45;;;3.50;99.90;;;;;;5032259;28;20037;-76
2023/10/29 05:04:49;;;;;;;2.83;1.85;;;3.50;99.90;;;;;;5033642;28;20025;-76
2023/10/29 05:07:15;;;;;;;5.35;1.98;;;3.50;99.90;;;;;;5033395;28;20033;-76
2023/10/29 05:09:40;;;;;;;2.83;1.80;;;3.60;99.90;;;;;;5032181;28;20033;-76
2023/10/29 05:12:07;;;;;;;2.25;1.40;;;3.60;99.90;;;;;;5032377;28;20053;-76
2023/10/29 05:14:33;;;;;;;2.03;1.02;;;3.60;99.90;;;;;;5033400;28;20022;-76
2023/10/29 05:16:59;;;;;;;2.25;1.15;;;3.60;99.90;;;;;;5017739;28;20072;-76
2023/10/29 05:19:24;;;;;;;2.08;1.10;;;3.50;99.90;;;;;;5012386;28;20060;-76
2023/10/29 05:21:50;;;;;;;2.83;1.80;;;3.60;99.90;;;;;;5013540;28;20030;-76
2023/10/29 05:24:16;;;;;;;4.43;2.88;;;3.50;99.90;;;;;;5013493;28;20036;-76
2023/10/29 05:26:42;;;;;;;9.02;5.82;;;3.50;99.90;;;;;;4995819;28;20062;-76
2023/10/29 05:29:08;;;;;;;12.25;7.72;;;3.50;99.90;;;;;;5012207;28;20080;-76
2023/10/29 05:31:33;;;;;;;21.77;14.20;;;3.40;99.90;;;;;;5013218;28;20368;-76
2023/10/29 05:34:01;;;;;;;21.27;13.70;;;3.40;99.90;;;;;;5013524;28;20069;-76
2023/10/29 05:36:27;;;;;;;17.38;9.93;;;3.40;99.90;;;;;;5013483;28;20041;-76
2023/10/29 05:38:53;;;;;;;6.28;2.05;;;3.30;99.90;;;;;;5013477;28;20076;-76
2023/10/29 05:41:19;;;;;;;3.88;1.25;;;3.30;99.90;;;;;;5013454;28;20026;-76
2023/10/29 05:43:45;;;;;;;3.05;1.60;;;3.20;99.90;;;;;;5012550;28;20026;-76
2023/10/29 05:46:14;;;;;;;3.05;2.05;;;3.10;99.90;;;;;;5012982;28;20033;-76
2023/10/29 05:48:41;;;;;;;6.05;2.25;;;3.10;99.90;;;;;;5024859;28;20029;-76
2023/10/29 05:51:10;;;;;;;4.50;2.30;;;3.10;99.90;;;;;;5031983;28;20068;-76
2023/10/29 05:53:38;;;;;;;2.65;1.40;;;3.20;99.90;;;;;;5032160;28;20053;-76
2023/10/29 05:56:04;;;;;;;3.20;1.90;;;3.20;99.90;;;;;;5033325;28;20068;-76
2023/10/29 05:58:30;;;;;;;3.60;1.70;;;3.20;99.90;;;;;;5015405;28;20037;-76
2023/10/29 06:00:55;;;;;;;2.75;1.60;;;3.20;99.90;;;;;;5033069;28;20501;-76
2023/10/29 06:03:21;;;;;;;3.65;1.95;;;3.20;99.90;;;;;;5032957;28;20033;-76
2023/10/29 06:05:47;;;;;;;3.97;2.17;;;3.20;99.90;;;;;;5034983;28;20029;-76
2023/10/29 06:08:12;;;;;;;4.30;2.25;;;3.10;99.90;;;;;;5018747;28;20078;-76
2023/10/29 06:10:38;;;;;;;4.45;2.60;;;3.10;99.90;;;;;;5036789;28;20113;-76
2023/10/29 06:13:04;;;;;;;5.47;2.90;;;3.00;99.90;;;;;;5036830;28;20037;-76
2023/10/29 06:15:30;;;;;;;6.50;3.70;;;3.00;99.90;;;;;;5035138;28;20033;-76
2023/10/29 06:17:55;;;;;;;5.95;3.63;;;2.90;99.90;;;;;;5035826;28;20033;-76
2023/10/29 06:20:22;;;;;;;4.53;2.92;;;3.00;99.90;;;;;;5027004;28;20453;-76
2023/10/29 06:22:48;;;;;;;4.95;2.42;;;3.00;99.90;;;;;;5015382;28;20030;-76
2023/10/29 06:25:17;;;;;;;4.60;2.50;;;3.00;99.90;;;;;;5030864;28;20080;-76
2023/10/29 06:27:43;;;;;;;4.63;2.13;;;3.10;99.90;;;;;;5030296;28;20080;-76
2023/10/29 06:30:11;;;;;;;3.88;1.90;;;3.10;99.90;;;;;;5028698;28;20038;-76
2023/10/29 06:32:37;;;;;;;4.57;2.05;;;3.10;99.90;;;;;;5036210;28;20076;-76
2023/10/29 06:35:03;;;;;;;3.83;2.08;;;3.20;99.90;;;;;;5027929;28;20030;-76
2023/10/29 06:37:29;;;;;;;3.13;1.70;;;3.20;99.90;;;;;;5016415;28;20493;-76
2023/10/29 06:39:55;;;;;;;3.97;1.50;;;3.20;99.90;;;;;;5016587;28;20030;-75
2023/10/29 06:42:21;;;;;;;3.90;1.33;;;3.20;99.90;;;;;;5016011;28;20041;-75
2023/10/29 06:44:46;;;;;;;2.63;1.40;;;3.20;99.90;;;;;;5016109;28;20041;-75
2023/10/29 06:47:13;;;;;;;2.70;1.33;;;3.30;99.90;;;;;;5017944;28;20397;-76
2023/10/29 06:49:39;;;;;;;2.85;1.40;;;3.20;99.90;;;;;;5035844;28;20429;-76
2023/10/29 06:52:05;;;;;;;3.60;1.90;;;3.30;99.90;;;;;;5035963;28;20022;-75
2023/10/29 06:54:31;;;;;;;3.47;2.10;;;3.30;99.90;;;;;;5034471;28;20481;-75
2023/10/29 06:56:57;;;;;;;3.35;1.88;;;3.30;99.90;;;;;;5035583;28;20104;-75
2023/10/29 06:59:22;;;;;;;4.65;2.20;;;3.30;99.90;;;;;;5034268;28;20555;-75
2023/10/29 07:01:49;;;;;;;3.33;2.15;;;3.30;99.90;;;;;;5024047;28;20036;-75
2023/10/29 07:04:15;;;;;;;3.95;2.03;;;3.40;99.90;;;;;;5033490;28;20376;-75
2023/10/29 07:06:41;;;;;;;4.80;2.22;;;3.40;99.90;;;;;;5035442;28;20064;-75
2023/10/29 07:09:06;;;;;;;3.92;2.33;;;3.50;99.90;;;;;;5024418;28;20401;-75
2023/10/29 07:11:32;;;;;;;4.55;2.08;;;3.60;99.90;;;;;;5015435;28;20487;-76
2023/10/29 07:13:58;;;;;;;4.55;2.55;;;3.60;99.90;;;;;;5014213;28;20479;-76
2023/10/29 07:16:23;;;;;;;3.30;2.03;;;3.70;99.90;;;;;;5014044;28;20033;-76
2023/10/29 07:18:49;;;;;;;3.17;2.05;;;3.80;99.90;;;;;;5019871;28;20514;-75
2023/10/29 07:21:15;;;;;;;5.88;2.97;;;3.90;99.90;;;;;;5024585;28;20026;-76
2023/10/29 07:23:41;;;;;;;6.38;3.05;;;4.00;99.90;;;;;;5014425;28;20025;-77
2023/10/29 07:26:07;;;;;;;4.65;2.55;;;4.10;99.90;;;;;;5041549;28;20030;-76
2023/10/29 07:28:34;;;;;;;5.10;2.55;;;4.20;99.90;;;;;;5051155;28;20022;-76
2023/10/29 07:31:01;;;;;;;3.58;2.40;;;4.40;99.90;;;;;;5034751;28;20029;-76
2023/10/29 07:33:27;;;;;;;4.10;2.05;;;4.50;99.90;;;;;;5046995;28;20108;-76
2023/10/29 07:35:52;;;;;;;3.65;2.10;;;4.50;99.90;;;;;;5054051;28;20069;-76
2023/10/29 07:38:18;;;;;;;3.13;1.90;;;4.60;99.90;;;;;;5037533;28;20029;-76
2023/10/29 07:40:44;;;;;;;2.30;1.30;;;4.70;99.90;;;;;;5053480;28;20029;-76
2023/10/29 07:43:09;;;;;;;3.45;1.75;;;4.80;99.90;;;;;;5044166;28;20069;-76
2023/10/29 07:45:35;;;;;;;3.92;2.08;;;4.90;99.90;;;;;;5025510;28;20030;-76
2023/10/29 07:48:01;;;;;;;5.35;2.15;;;5.00;99.90;;;;;;5054309;28;20029;-75
2023/10/29 07:50:27;;;;;;;2.90;2.00;;;5.10;99.90;;;;;;5037936;28;20036;-76
2023/10/29 07:52:53;;;;;;;3.67;2.05;;;5.20;99.90;;;;;;5054807;28;20034;-75
2023/10/29 07:55:19;;;;;;;2.95;1.95;;;5.30;99.90;;;;;;5025970;28;20034;-75
2023/10/29 07:57:45;;;;;;;3.80;2.30;;;5.40;99.90;;;;;;5049273;28;20031;-76
2023/10/29 08:00:13;;;;;;;6.13;2.10;;;5.50;99.90;;;;;;5036856;28;20037;-76
2023/10/29 08:02:42;;;;;;;3.38;1.88;;;5.60;99.90;;;;;;5022378;28;20025;-76
2023/10/29 08:05:10;;;;;;;3.95;2.03;;;5.70;99.90;;;;;;5053052;28;20472;-76
2023/10/29 08:07:36;;;;;;;4.38;2.85;;;5.80;99.90;;;;;;5044534;28;20028;-76
2023/10/29 08:10:02;;;;;;;4.30;2.90;;;5.90;99.90;;;;;;5032306;28;20465;-76
2023/10/29 08:12:29;;;;;;;4.13;2.70;;;5.90;99.90;;;;;;5034218;28;20426;-75
2023/10/29 08:14:55;;;;;;;5.10;2.90;;;6.10;99.90;;;;;;5034355;28;20063;-75
2023/10/29 08:17:21;;;;;;;4.00;2.90;;;6.20;99.90;;;;;;5028407;28;20022;-76
2023/10/29 08:19:47;;;;;;;3.50;2.38;;;6.30;99.90;;;;;;5014705;28;20080;-75
2023/10/29 08:22:14;;;;;;;5.07;2.22;;;6.50;99.90;;;;;;5014275;28;20030;-75
2023/10/29 08:24:43;;;;;;;4.38;2.20;;;6.60;99.90;;;;;;5031706;28;20040;-76
2023/10/29 08:27:09;;;;;;;3.47;2.10;;;6.70;99.90;;;;;;5018820;28;20398;-76
2023/10/29 08:29:35;;;;;;;4.75;2.20;;;6.80;99.90;;;;;;5025696;28;20033;-76
2023/10/29 08:32:02;;;;;;;6.30;2.75;;;6.90;99.90;;;;;;5032682;28;20494;-75
2023/10/29 08:34:28;;;;;;;5.70;2.90;;;7.00;99.90;;;;;;5027621;28;20030;-75
2023/10/29 08:36:54;;;;;;;5.97;3.08;;;7.10;99.90;;;;;;5022839;28;20184;-75
2023/10/29 08:39:22;;;;;;;6.70;2.65;;;7.20;99.90;;;;;;5005849;28;20030;-76
2023/10/29 08:41:48;;;;;;;5.70;2.50;;;7.30;99.90;;;;;;5025556;28;20067;-75
2023/10/29 08:44:14;;;;;;;4.60;2.92;;;7.40;99.90;;;;;;5019803;28;20042;-76
2023/10/29 08:46:41;;;;;;;4.10;2.13;;;7.50;99.90;;;;;;5052497;28;20036;-75
2023/10/29 08:49:07;;;;;;;9.15;5.57;;;7.60;99.90;;;;;;5034583;28;20054;-75
2023/10/29 08:51:33;;;;;;;9.27;5.03;;;7.70;99.90;;;;;;5020125;28;20053;-75
2023/10/29 08:53:59;;;;;;;4.57;2.33;;;7.80;99.90;;;;;;5032822;28;20052;-75
2023/10/29 08:56:25;;;;;;;3.15;1.90;;;7.90;99.90;;;;;;5025550;28;20028;-75
2023/10/29 08:58:50;;;;;;;3.25;2.25;;;8.00;99.90;;;;;;5018826;28;20112;-75
2023/10/29 09:01:17;;;;;;;4.57;2.10;;;8.10;99.90;;;;;;5026441;28;20021;-75
2023/10/29 09:03:43;;;;;;;4.70;2.30;;;8.20;99.90;;;;;;5024629;28;20026;-74
2023/10/29 09:06:08;;;;;;;4.25;2.20;;;8.30;99.90;;;;;;5013623;28;20105;-73
2023/10/29 09:08:34;;;;;;;3.00;1.90;;;8.40;99.90;;;;;;5014020;28;20026;-74
2023/10/29 09:11:00;;;;;;;3.58;2.17;;;8.50;99.90;;;;;;5013544;28;20021;-74
2023/10/29 09:13:30;;;;;;;3.70;1.77;;;8.60;99.90;;;;;;5013539;28;20026;-73
2023/10/29 09:15:56;;;;;;;3.88;1.95;;;8.70;99.90;;;;;;5013513;28;20072;-74
2023/10/29 09:18:21;;;;;;;4.05;2.20;;;8.90;99.90;;;;;;5013499;28;20062;-73
2023/10/29 09:20:47;;;;;;;4.50;2.40;;;9.00;99.90;;;;;;5013499;28;20053;-74
2023/10/29 09:23:16;;;;;;;3.50;2.25;;;9.10;99.90;;;;;;5013721;28;20036;-74
2023/10/29 09:25:44;;;;;;;6.03;2.80;;;9.10;99.90;;;;;;5013457;28;20089;-73
2023/10/29 09:28:11;;;;;;;5.85;2.13;;;9.20;99.90;;;;;;5012220;28;20173;-73
2023/10/29 09:30:40;;;;;;;4.05;1.92;;;9.30;99.90;;;;;;5013505;28;20608;-73
2023/10/29 09:33:08;;;;;;;4.65;2.33;;;9.40;99.90;;;;;;5013413;28;20037;-73
2023/10/29 09:35:35;;;;;;;2.72;1.88;;;9.50;99.90;;;;;;5013192;28;20040;-73
2023/10/29 09:38:01;;;;;;;2.47;1.50;;;9.60;99.90;;;;;;5013040;28;20430;-73
2023/10/29 09:40:27;;;;;;;2.80;1.60;;;9.70;99.90;;;;;;5016069;28;20097;-73
2023/10/29 09:42:55;;;;;;;2.58;1.40;;;9.80;99.90;;;;;;5017305;28;20037;-73
2023/10/29 09:45:27;;;;;;;2.40;1.30;;;9.80;99.90;;;;;;5017442;28;20045;-73
2023/10/29 09:47:53;;;;;;;3.92;1.83;;;9.90;99.90;;;;;;5017158;28;20034;-73
2023/10/29 09:50:21;;;;;;;4.00;1.40;;;10.00;99.90;;;;;;5016952;28;20105;-73
2023/10/29 09:52:52;;;;;;;3.53;1.48;;;10.10;99.90;;;;;;5017010;28;20032;-73
2023/10/29 09:55:20;;;;;;;3.65;1.80;;;10.10;99.90;;;;;;5017030;28;20026;-73
2023/10/29 09:57:46;;;;;;;3.42;2.00;;;10.20;99.90;;;;;;5016844;28;20033;-74
2023/10/29 10:00:15;;;;;;;3.22;1.80;;;10.30;99.90;;;;;;5017411;28;20401;-73
2023/10/29 10:03:07;;;;;;;3.00;1.73;;;10.40;99.90;;;;;;5016422;28;20037;-73
2023/10/29 10:05:34;;;;;;;2.70;1.60;;;10.50;99.90;;;;;;5017696;28;20038;-73
2023/10/29 10:08:00;;;;;;;4.15;1.80;;;10.50;99.90;;;;;;5016702;28;20026;-73
2023/10/29 10:10:41;;;;;;;2.33;1.42;;;10.60;99.90;;;;;;5016006;28;20406;-73
2023/10/29 10:13:08;;;;;;;2.58;1.40;;;10.70;99.90;;;;;;5016579;28;20072;-73
2023/10/29 10:15:35;;;;;;;3.00;1.33;;;10.80;99.90;;;;;;5016569;28;20026;-73
2023/10/29 10:18:06;;;;;;;3.50;1.70;;;10.80;99.90;;;;;;5016458;28;20022;-73
2023/10/29 10:20:32;;;;;;;3.45;1.50;;;10.90;99.90;;;;;;5016450;28;20113;-73
2023/10/29 10:23:01;;;;;;;2.45;1.50;;;10.90;99.90;;;;;;5016368;28;20030;-73
2023/10/29 10:25:28;;;;;;;3.03;1.60;;;11.00;99.90;;;;;;5016920;28;20030;-73
2023/10/29 10:27:56;;;;;;;2.95;1.60;;;11.00;99.90;;;;;;5016339;28;20501;-73
2023/10/29 10:30:28;;;;;;;2.42;1.50;;;11.10;99.90;;;;;;5016140;28;20040;-73
2023/10/29 10:33:15;;;;;;;3.92;2.00;;;11.20;99.90;;;;;;5016726;28;20352;-73
2023/10/29 10:35:46;;;;;;;3.72;2.10;;;11.20;99.90;;;;;;5019165;28;20541;-73
2023/10/29 10:38:13;;;;;;;2.92;1.88;;;11.30;99.90;;;;;;5016153;28;20022;-73
2023/10/29 10:40:40;;;;;;;5.38;2.00;;;11.40;99.90;;;;;;5016144;28;20042;-73
2023/10/29 10:43:07;;;;;;;4.60;2.08;;;11.50;99.90;;;;;;5016415;28;20041;-73
2023/10/29 10:45:33;;;;;;;3.40;1.92;;;11.60;99.90;;;;;;5016027;28;20061;-73
2023/10/29 10:48:03;;;;;;;2.92;1.52;;;11.80;99.90;;;;;;5023910;28;20482;-73
2023/10/29 10:50:30;;;;;;;6.22;1.90;;;11.90;99.90;;;;;;5025228;28;20112;-73
2023/10/29 10:52:57;;;;;;;4.13;1.83;;;12.00;99.90;;;;;;5029532;28;20051;-73
2023/10/29 10:55:24;;;;;;;4.13;1.65;;;12.10;99.90;;;;;;5034508;28;20056;-73
2023/10/29 10:57:50;;;;;;;2.70;1.70;;;12.30;99.90;;;;;;5035193;28;20025;-73
2023/10/29 11:00:17;;;;;;;4.07;1.98;;;12.30;99.90;;;;;;5020056;28;20025;-73
2023/10/29 11:02:44;;;;;;;3.42;2.22;;;12.40;99.90;;;;;;5029609;28;20033;-73
2023/10/29 11:05:11;;;;;;;3.92;2.10;;;12.50;99.90;;;;;;5023372;28;20037;-73
2023/10/29 11:07:38;;;;;;;2.65;2.00;;;12.50;99.90;;;;;;5040309;28;20059;-73
2023/10/29 11:10:05;;;;;;;3.72;1.95;;;12.60;99.90;;;;;;5037967;28;20033;-73
2023/10/29 11:12:35;;;;;;;4.07;1.92;;;12.70;99.90;;;;;;5030751;28;20543;-73
2023/10/29 11:15:14;;;;;;;2.40;1.37;;;12.80;99.90;;;;;;5037047;28;20021;-73
2023/10/29 11:18:00;;;;;;;3.78;1.65;;;12.80;99.90;;;;;;5040835;28;20312;-73
2023/10/29 11:20:46;;;;;;;2.50;1.50;;;12.90;99.90;;;;;;5031033;28;20021;-73
2023/10/29 11:23:16;;;;;;;3.10;1.20;;;13.00;99.90;;;;;;5026489;28;20112;-73
2023/10/29 11:25:42;;;;;;;2.30;0.90;;;13.10;99.90;;;;;;5019472;28;20397;-73
2023/10/29 11:28:32;;;;;;;2.50;1.40;;;13.10;99.90;;;;;;5020942;28;20021;-73
2023/10/29 11:31:18;;;;;;;2.22;1.45;;;13.20;99.90;;;;;;5034828;28;20025;-73
2023/10/29 11:34:04;;;;;;;2.30;1.40;;;13.30;99.90;;;;;;5033748;28;20030;-73
2023/10/29 11:36:32;;;;;;;2.58;1.40;;;13.50;99.90;;;;;;5029410;28;20120;-73
2023/10/29 11:39:16;;;;;;;2.42;1.40;;;13.60;99.90;;;;;;5034891;28;20482;-73
2023/10/29 11:41:46;;;;;;;2.08;1.20;;;13.70;99.90;;;;;;5024016;28;20364;-73
2023/10/29 11:44:24;;;;;;;2.17;1.17;;;13.80;99.90;;;;;;5018846;28;20026;-73
2023/10/29 11:46:56;;;;;;;2.67;1.27;;;14.00;99.90;;;;;;5034786;28;20393;-73
2023/10/29 11:49:26;;;;;;;4.22;1.30;;;14.10;99.90;;;;;;5014765;28;20032;-73
2023/10/29 11:51:59;;;;;;;3.33;1.40;;;14.20;99.90;;;;;;5014660;28;20030;-73
2023/10/29 11:54:28;;;;;;;2.33;1.23;;;14.30;99.90;;;;;;5014782;28;20556;-73
2023/10/29 11:56:57;;;;;;;3.15;1.30;;;14.40;99.90;;;;;;5014428;28;20025;-73
2023/10/29 11:59:23;;;;;;;2.42;1.13;;;14.50;99.90;;;;;;5014510;28;20040;-72
2023/10/29 12:01:50;;;;;;;3.20;1.58;;;14.50;99.90;;;;;;5013915;28;20026;-73
2023/10/29 12:04:16;;;;;;;2.20;1.20;;;14.60;99.90;;;;;;5013284;28;20072;-73
2023/10/29 12:06:43;;;;;;;2.42;1.20;;;14.70;99.90;;;;;;5014570;28;20422;-73
2023/10/29 12:09:20;;;;;;;3.00;1.60;;;14.90;99.90;;;;;;5014761;28;20033;-73
2023/10/29 12:11:48;;;;;;;3.28;1.50;;;15.00;99.90;;;;;;5014386;28;20018;-72
2023/10/29 12:14:15;;;;;;;2.40;1.27;;;15.20;99.90;;;;;;5014617;28;20478;-73
2023/10/29 12:16:41;;;;;;;2.45;1.20;;;15.30;99.90;;;;;;5018376;28;20038;-72
2023/10/29 12:19:07;;;;;;;2.65;1.27;;;15.50;99.90;;;;;;5014612;28;20088;-72
2023/10/29 12:21:33;;;;;;;3.80;1.45;;;15.50;99.90;;;;;;5014258;28;20386;-72
2023/10/29 12:24:00;;;;;;;2.08;1.15;;;15.60;99.90;;;;;;5025619;28;20033;-72
2023/10/29 12:26:27;;;;;;;1.50;0.93;;;15.70;99.90;;;;;;5034438;28;20025;-73
2023/10/29 12:28:53;;;;;;;2.00;1.00;;;15.80;99.90;;;;;;5021208;28;20041;-72
2023/10/29 12:31:45;;;;;;;2.38;0.95;;;15.80;99.90;;;;;;5021564;28;20022;-73
2023/10/29 12:34:11;;;;;;;2.97;1.35;;;15.90;99.90;;;;;;5030568;28;20390;-73
2023/10/29 12:36:36;;;;;;;2.03;1.23;;;15.90;99.90;;;;;;5022180;28;20030;-73
2023/10/29 12:39:02;;;;;;;4.20;2.13;;;15.90;99.90;;;;;;5030810;28;20525;-73
2023/10/29 12:41:31;;;;;;;3.67;2.38;;;16.00;99.90;;;;;;5031966;28;20034;-73
2023/10/29 12:43:57;;;;;;;6.15;4.05;;;16.10;99.90;;;;;;5027241;28;20466;-72
2023/10/29 12:46:25;;;;;;;6.43;4.13;;;16.10;99.90;;;;;;5015137;28;20677;-73
2023/10/29 12:49:09;;;;;;;9.38;4.95;;;16.10;99.90;;;;;;5032235;28;20037;-73
2023/10/29 12:51:37;;;;;;;5.97;4.20;;;16.10;99.90;;;;;;5030196;28;20017;-73
2023/10/29 12:54:13;;;;;;;7.32;5.30;;;16.10;99.90;;;;;;5033508;28;20021;-73